Time;durP1;ratioP1;P1;durP2;ratioP2;P2;SDS_P1;SDS_P2;PMS_P1;PMS_P2;Temp;Humidity;BMP_temperature;BMP_pressure;BME280_temperature;BME280_humidity;BME280_pressure;Samples;Min_cycle;Max_cycle;Signal;HPM_P1;HPM_P2
2022/11/14 00:00:25;;;;;;;20.55;14.20;;;;;;;5.43;100.00;101542.38;5030218;28;20033;-70
2022/11/14 00:02:50;;;;;;;22.10;14.00;;;;;;;5.33;100.00;101545.31;5028846;28;20030;-68
2022/11/14 00:05:16;;;;;;;23.90;13.65;;;;;;;5.30;100.00;101542.56;5020219;28;20428;-69
2022/11/14 00:07:44;;;;;;;20.52;13.43;;;;;;;5.22;100.00;101547.41;5015171;28;20087;-69
2022/11/14 00:10:10;;;;;;;23.40;14.13;;;;;;;5.19;100.00;101549.88;5017557;28;20037;-70
2022/11/14 00:12:35;;;;;;;19.40;13.82;;;;;;;5.18;100.00;101554.22;5023189;28;20083;-70
2022/11/14 00:15:01;;;;;;;19.27;14.48;;;;;;;5.25;100.00;101547.59;5015588;28;20026;-70
2022/11/14 00:17:26;;;;;;;18.45;12.88;;;;;;;5.25;100.00;101550.19;5014819;28;20041;-70
2022/11/14 00:19:51;;;;;;;19.52;14.50;;;;;;;5.27;100.00;101545.94;5017804;28;20157;-70
2022/11/14 00:22:19;;;;;;;23.33;13.52;;;;;;;5.23;100.00;101538.75;5025577;28;20664;-69
2022/11/14 00:24:45;;;;;;;19.88;13.35;;;;;;;5.17;100.00;101543.69;5022314;28;20030;-70
2022/11/14 00:27:11;;;;;;;20.85;13.48;;;;;;;5.13;100.00;101540.03;5018469;28;20389;-69
2022/11/14 00:29:37;;;;;;;21.80;14.50;;;;;;;5.18;100.00;101545.47;5025766;28;20030;-69
2022/11/14 00:32:03;;;;;;;19.45;13.85;;;;;;;5.15;100.00;101540.09;5017687;28;20246;-69
2022/11/14 00:34:28;;;;;;;18.95;13.23;;;;;;;5.15;100.00;101540.09;5018297;28;20033;-69
2022/11/14 00:36:53;;;;;;;20.92;13.68;;;;;;;5.13;100.00;101531.28;5026910;28;20061;-70
2022/11/14 00:39:19;;;;;;;21.20;13.82;;;;;;;5.14;100.00;101530.47;5025507;28;20029;-70
2022/11/14 00:41:44;;;;;;;22.05;14.52;;;;;;;5.15;100.00;101529.66;5022148;28;20045;-70
2022/11/14 00:44:10;;;;;;;20.25;14.43;;;;;;;5.10;100.00;101526.84;5019125;28;20029;-70
2022/11/14 00:46:35;;;;;;;21.20;14.50;;;;;;;5.05;100.00;101523.09;5024719;28;20029;-70
2022/11/14 00:49:04;;;;;;;21.42;14.80;;;;;;;5.05;100.00;101521.38;5031667;28;20442;-70
2022/11/14 00:51:29;;;;;;;19.83;14.13;;;;;;;5.02;100.00;101526.44;5027941;28;20116;-70
2022/11/14 00:53:55;;;;;;;20.73;13.73;;;;;;;5.05;100.00;101523.97;5028465;28;20492;-70
2022/11/14 00:56:20;;;;;;;20.08;14.20;;;;;;;5.06;100.00;101515.34;5025847;28;20026;-69
2022/11/14 00:58:45;;;;;;;20.80;13.88;;;;;;;5.02;100.00;101517.75;5032751;28;20091;-69
2022/11/14 01:01:11;;;;;;;24.30;14.70;;;;;;;5.01;100.00;101501.19;5017110;28;20445;-69
2022/11/14 01:03:36;;;;;;;20.17;14.68;;;;;;;4.96;100.00;101500.03;5017218;28;20028;-69
2022/11/14 01:06:10;;;;;;;20.40;13.80;;;;;;;4.94;100.00;101508.59;5022115;28;20079;-69
2022/11/14 01:08:35;;;;;;;22.05;14.40;;;;;;;5.02;100.00;101502.97;5017173;28;20466;-70
2022/11/14 01:11:09;;;;;;;21.77;14.38;;;;;;;4.95;100.00;101500.88;5019354;28;20025;-69
2022/11/14 01:13:34;;;;;;;;;;;;;;;5.00;100.00;101496.78;5021020;28;20026;-70
2022/11/14 01:16:00;;;;;;;23.38;13.52;;;;;;;4.99;100.00;101496.69;5027037;28;19920;-71
2022/11/14 01:18:26;;;;;;;22.40;14.35;;;;;;;4.92;100.00;101490.28;5015537;28;20018;-70
2022/11/14 01:20:51;;;;;;;21.10;14.60;;;;;;;4.97;100.00;101488.81;5017729;28;20036;-69
2022/11/14 01:23:19;;;;;;;24.38;14.45;;;;;;;4.85;100.00;101488.19;5017002;28;20033;-69
2022/11/14 01:25:45;;;;;;;21.83;14.00;;;;;;;4.75;100.00;101486.84;5023242;28;20030;-69
2022/11/14 01:28:15;;;;;;;22.05;14.32;;;;;;;4.76;100.00;101483.44;5029005;28;20056;-68
2022/11/14 01:30:41;;;;;;;21.02;14.02;;;;;;;4.80;100.00;101480.16;5021643;28;20103;-68
2022/11/14 01:33:07;;;;;;;21.80;14.80;;;;;;;4.78;100.00;101481.78;5022290;28;20064;-69
2022/11/14 01:35:33;;;;;;;21.77;15.25;;;;;;;4.81;100.00;101470.59;5018499;28;20500;-69
2022/11/14 01:37:59;;;;;;;18.38;13.10;;;;;;;4.78;100.00;101470.47;5021240;28;20025;-69
2022/11/14 01:40:25;;;;;;;19.58;13.95;;;;;;;4.79;100.00;101472.22;5022110;28;20036;-70
2022/11/14 01:43:15;;;;;;;23.52;14.98;;;;;;;4.85;100.00;101467.34;5014314;28;20032;-68
2022/11/14 01:45:54;;;;;;;25.27;15.13;;;;;;;4.79;100.00;101457.50;5013081;28;20042;-71
2022/11/14 01:48:22;;;;;;;19.25;13.13;;;;;;;4.78;100.00;101462.63;5020968;28;20108;-69
2022/11/14 01:50:53;;;;;;;23.80;14.57;;;;;;;4.71;100.00;101458.81;5020717;28;20163;-69
2022/11/14 01:53:18;;;;;;;22.38;14.20;;;;;;;4.75;100.00;101455.56;5018104;28;20041;-69
2022/11/14 01:55:44;;;;;;;22.80;13.95;;;;;;;4.71;100.00;101454.50;5032668;28;20064;-69
2022/11/14 01:58:09;;;;;;;21.67;13.60;;;;;;;4.69;100.00;101444.81;5018364;28;20634;-70
2022/11/14 02:00:35;;;;;;;18.95;13.95;;;;;;;4.65;100.00;101433.34;5016455;28;20057;-69
2022/11/14 02:03:02;;;;;;;20.90;13.93;;;;;;;4.49;100.00;101428.16;5013385;28;20071;-69
2022/11/14 02:05:28;;;;;;;21.27;14.57;;;;;;;4.49;100.00;101431.69;5013120;28;20059;-70
2022/11/14 02:07:54;;;;;;;20.85;14.38;;;;;;;4.46;100.00;101435.81;5016543;28;20485;-69
2022/11/14 02:10:20;;;;;;;23.88;14.20;;;;;;;4.52;100.00;101434.44;5019011;28;20033;-68
2022/11/14 02:12:48;;;;;;;21.30;14.63;;;;;;;4.52;100.00;101431.81;5029721;28;20033;-69
2022/11/14 02:15:14;;;;;;;20.45;14.20;;;;;;;4.42;100.00;101429.56;5019392;28;20034;-69
2022/11/14 02:17:41;;;;;;;29.73;14.90;;;;;;;4.50;100.00;101422.13;5016994;28;20073;-69
2022/11/14 02:20:12;;;;;;;21.60;14.27;;;;;;;4.54;100.00;101418.88;5012903;28;20092;-68
2022/11/14 02:22:39;;;;;;;19.27;13.85;;;;;;;4.43;100.00;101415.72;5024585;28;20041;-69
2022/11/14 02:25:09;;;;;;;22.08;15.20;;;;;;;4.43;100.00;101404.41;4997530;28;20060;-69
2022/11/14 02:27:38;;;;;;;21.02;13.65;;;;;;;4.43;100.00;101399.19;5015496;28;20440;-70
2022/11/14 02:30:12;;;;;;;23.15;14.77;;;;;;;4.36;100.00;101391.06;5022200;28;20029;-70
2022/11/14 02:32:38;;;;;;;24.48;15.00;;;;;;;4.38;100.00;101392.06;5031605;28;20053;-69
2022/11/14 02:35:03;;;;;;;24.17;15.07;;;;;;;4.25;100.00;101384.41;5033782;28;20021;-69
2022/11/14 02:37:29;;;;;;;19.65;13.95;;;;;;;4.20;100.00;101383.28;5034260;28;20041;-70
2022/11/14 02:39:54;;;;;;;25.70;15.50;;;;;;;4.21;100.00;101382.47;5019468;28;20057;-69
2022/11/14 02:42:19;;;;;;;23.40;14.30;;;;;;;4.22;100.00;101382.56;5025975;28;20474;-70
2022/11/14 02:44:45;;;;;;;21.88;15.18;;;;;;;4.17;100.00;101385.75;5018756;28;20030;-69
2022/11/14 02:47:10;;;;;;;23.95;15.40;;;;;;;4.16;100.00;101382.22;5035091;28;20025;-70
2022/11/14 02:49:35;;;;;;;25.63;15.73;;;;;;;4.15;100.00;101379.53;5036089;28;20032;-68
2022/11/14 02:52:01;;;;;;;25.63;15.27;;;;;;;4.14;100.00;101377.78;5023507;28;20068;-69
2022/11/14 02:54:26;;;;;;;27.08;16.17;;;;;;;4.18;100.00;101378.00;5030892;28;20059;-69
2022/11/14 02:56:52;;;;;;;27.15;16.25;;;;;;;4.15;100.00;101371.72;5032152;28;20052;-69
2022/11/14 02:59:19;;;;;;;28.85;16.90;;;;;;;4.12;100.00;101372.47;5026678;28;20037;-69
2022/11/14 03:01:48;;;;;;;25.52;16.17;;;;;;;4.14;100.00;101362.16;5023418;28;20556;-68
2022/11/14 03:04:13;;;;;;;24.40;15.82;;;;;;;4.07;100.00;101362.63;5025652;28;20037;-70
2022/11/14 03:06:38;;;;;;;22.83;15.35;;;;;;;4.08;100.00;101361.81;5018628;28;20038;-69
2022/11/14 03:09:04;;;;;;;25.17;16.02;;;;;;;4.02;100.00;101360.69;5031634;28;20477;-70
2022/11/14 03:11:32;;;;;;;26.63;16.42;;;;;;;4.01;100.00;101364.09;5028293;28;20029;-69
2022/11/14 03:13:59;;;;;;;24.67;15.52;;;;;;;4.02;100.00;101365.00;5032515;28;20100;-68
2022/11/14 03:16:24;;;;;;;26.15;16.73;;;;;;;3.97;100.00;101363.88;5031172;28;20034;-70
2022/11/14 03:18:49;;;;;;;26.65;15.32;;;;;;;3.88;100.00;101364.31;5029646;28;20036;-70
2022/11/14 03:21:18;;;;;;;27.05;15.80;;;;;;;3.92;100.00;101366.25;5020931;28;20032;-69
2022/11/14 03:23:43;;;;;;;27.80;16.90;;;;;;;3.93;100.00;101370.63;5024470;28;20034;-69
2022/11/14 03:26:10;;;;;;;29.35;17.15;;;;;;;3.92;100.00;101362.75;5026168;28;20025;-68
2022/11/14 03:28:37;;;;;;;25.08;15.80;;;;;;;3.87;100.00;101359.91;5015580;28;20112;-69
2022/11/14 03:31:03;;;;;;;26.67;15.20;;;;;;;3.83;100.00;101363.16;5022122;28;20036;-69
2022/11/14 03:33:28;;;;;;;23.92;15.30;;;;;;;3.80;100.00;101362.97;5032788;28;20009;-69
2022/11/14 03:35:54;;;;;;;27.13;15.65;;;;;;;3.74;100.00;101363.56;5022996;28;20485;-68
2022/11/14 03:38:23;;;;;;;21.95;15.27;;;;;;;3.72;100.00;101363.50;5028716;28;20021;-70
2022/11/14 03:40:52;;;;;;;27.80;15.50;;;;;;;3.71;100.00;101364.28;5021844;28;20079;-69
2022/11/14 03:43:23;;;;;;;33.70;16.10;;;;;;;3.62;100.00;101358.63;5030972;28;20037;-69
2022/11/14 03:45:48;;;;;;;24.63;15.75;;;;;;;3.60;100.00;101357.63;5023381;28;20031;-69
2022/11/14 03:48:13;;;;;;;27.83;16.65;;;;;;;3.55;100.00;101359.09;5032659;28;20116;-69
2022/11/14 03:50:43;;;;;;;27.65;16.58;;;;;;;3.57;100.00;101356.56;5029377;28;20477;-68
2022/11/14 03:53:10;;;;;;;28.63;16.05;;;;;;;3.52;100.00;101352.00;5024075;28;20048;-69
2022/11/14 03:55:36;;;;;;;28.88;17.17;;;;;;;3.56;100.00;101347.00;5027887;28;20021;-70
2022/11/14 03:58:02;;;;;;;27.67;16.02;;;;;;;3.55;100.00;101346.09;5030459;28;20076;-70
2022/11/14 04:00:27;;;;;;;30.77;17.75;;;;;;;3.51;100.00;101346.75;5025366;28;20037;-70
2022/11/14 04:02:56;;;;;;;33.20;16.77;;;;;;;3.49;100.00;101345.78;5017841;28;20044;-70
2022/11/14 04:05:22;;;;;;;35.40;18.20;;;;;;;3.54;100.00;101350.41;5021631;28;20450;-69
2022/11/14 04:07:48;;;;;;;33.45;18.20;;;;;;;3.60;100.00;101351.56;5014555;28;20060;-70
2022/11/14 04:10:13;;;;;;;39.30;19.48;;;;;;;3.62;100.00;101339.50;5020146;28;20104;-70
2022/11/14 04:12:38;;;;;;;36.15;18.65;;;;;;;3.52;100.00;101332.91;5033275;28;20477;-69
2022/11/14 04:15:04;;;;;;;32.63;18.90;;;;;;;3.54;100.00;101333.88;5025139;28;20034;-69
2022/11/14 04:17:30;;;;;;;34.55;17.80;;;;;;;3.55;100.00;101330.47;5017859;28;20025;-70
2022/11/14 04:19:55;;;;;;;35.42;19.52;;;;;;;3.52;100.00;101322.50;5032753;28;20037;-69
2022/11/14 04:22:20;;;;;;;36.45;17.90;;;;;;;3.51;100.00;101318.13;5027546;28;20103;-68
2022/11/14 04:24:46;;;;;;;37.13;20.65;;;;;;;3.49;100.00;101323.25;5015926;28;20030;-69
2022/11/14 04:27:14;;;;;;;30.13;18.40;;;;;;;3.49;100.00;101310.22;5025848;28;20030;-69
2022/11/14 04:29:39;;;;;;;40.25;19.98;;;;;;;3.47;100.00;101305.75;5032041;28;20021;-70
2022/11/14 04:32:05;;;;;;;40.22;20.00;;;;;;;3.45;100.00;101315.22;5019218;28;20099;-69
2022/11/14 04:34:30;;;;;;;37.67;19.70;;;;;;;3.42;100.00;101315.03;5024018;28;20355;-70
2022/11/14 04:36:58;;;;;;;42.33;19.58;;;;;;;3.36;100.00;101307.78;5025788;28;20033;-70
2022/11/14 04:39:24;;;;;;;38.90;19.90;;;;;;;3.32;100.00;101311.97;5017214;28;20037;-69
2022/11/14 04:41:49;;;;;;;37.72;18.52;;;;;;;3.31;100.00;101309.25;5032892;28;20037;-70
2022/11/14 04:44:14;;;;;;;40.38;20.40;;;;;;;3.35;100.00;101309.50;5031460;28;20114;-70
2022/11/14 04:46:40;;;;;;;43.80;20.67;;;;;;;3.41;100.00;101308.06;5023596;28;20531;-69
2022/11/14 04:49:05;;;;;;;42.53;21.13;;;;;;;3.46;100.00;101312.69;5032561;28;20033;-69
2022/11/14 04:51:30;;;;;;;38.88;20.48;;;;;;;3.29;100.00;101303.97;5028342;28;20040;-70
2022/11/14 04:53:55;;;;;;;37.65;20.15;;;;;;;3.34;100.00;101293.81;5030617;28;20048;-69
2022/11/14 04:56:22;;;;;;;43.78;21.83;;;;;;;3.32;100.00;101291.16;5022704;28;20075;-70
2022/11/14 04:58:48;;;;;;;39.97;20.63;;;;;;;3.26;100.00;101282.13;5021726;28;20161;-70
2022/11/14 05:01:14;;;;;;;41.13;20.40;;;;;;;3.26;100.00;101279.53;5025574;28;20450;-70
2022/11/14 05:03:39;;;;;;;42.38;21.08;;;;;;;3.26;100.00;101280.41;5019970;28;20037;-69
2022/11/14 05:06:05;;;;;;;37.45;20.45;;;;;;;3.24;100.00;101276.81;5016835;28;20026;-69
2022/11/14 05:08:30;;;;;;;43.17;20.38;;;;;;;3.22;100.00;101283.66;5014602;28;20051;-69
2022/11/14 05:10:56;;;;;;;44.42;21.75;;;;;;;3.20;100.00;101270.56;5022478;28;20136;-69
2022/11/14 05:13:21;;;;;;;43.28;21.63;;;;;;;3.19;100.00;101267.91;5024313;28;20104;-70
2022/11/14 05:15:49;;;;;;;44.05;23.08;;;;;;;3.18;100.00;101261.78;5033329;28;20037;-69
2022/11/14 05:18:15;;;;;;;42.83;21.25;;;;;;;3.17;100.00;101259.09;5016726;28;20084;-69
2022/11/14 05:20:40;;;;;;;39.47;21.50;;;;;;;3.15;100.00;101263.34;5021404;28;20025;-69
2022/11/14 05:23:05;;;;;;;42.55;21.90;;;;;;;3.09;100.00;101255.22;5031484;28;20022;-69
2022/11/14 05:25:31;;;;;;;43.63;22.70;;;;;;;3.01;100.00;101254.78;5020420;28;20030;-69
2022/11/14 05:27:56;;;;;;;54.80;23.23;;;;;;;2.99;100.00;101254.72;5023166;28;20030;-70
2022/11/14 05:30:21;;;;;;;47.25;21.90;;;;;;;3.00;100.00;101258.22;5022661;28;20402;-70
2022/11/14 05:32:47;;;;;;;43.78;20.88;;;;;;;3.01;100.00;101250.50;5032128;28;20380;-68
2022/11/14 05:35:12;;;;;;;45.15;21.73;;;;;;;3.07;100.00;101254.25;5022939;28;20026;-69
2022/11/14 05:37:38;;;;;;;46.80;22.27;;;;;;;3.01;100.00;101253.09;5018075;28;20041;-68
2022/11/14 05:40:04;;;;;;;45.63;22.25;;;;;;;3.02;100.00;101254.88;5018321;28;20032;-68
2022/11/14 05:42:29;;;;;;;47.65;22.38;;;;;;;3.03;100.00;101254.06;5018078;28;20033;-69
2022/11/14 05:44:55;;;;;;;46.08;21.92;;;;;;;3.03;100.00;101267.06;5015484;28;20071;-70
2022/11/14 05:47:20;;;;;;;50.67;22.92;;;;;;;2.99;100.00;101249.50;5019135;28;20026;-69
2022/11/14 05:49:45;;;;;;;47.33;24.42;;;;;;;2.97;100.00;101245.03;5031881;28;20031;-69
2022/11/14 05:52:11;;;;;;;45.58;23.60;;;;;;;2.92;100.00;101242.19;5014397;28;20087;-70
2022/11/14 05:54:37;;;;;;;46.53;22.98;;;;;;;2.92;100.00;101234.41;5018401;28;20030;-69
2022/11/14 05:57:05;;;;;;;47.70;23.35;;;;;;;2.90;100.00;101233.41;5020345;28;20144;-71
2022/11/14 05:59:30;;;;;;;45.90;23.13;;;;;;;2.94;100.00;101237.97;5016815;28;20409;-70
2022/11/14 06:01:55;;;;;;;48.10;22.50;;;;;;;2.91;100.00;101237.81;5017476;28;20029;-70
2022/11/14 06:04:21;;;;;;;46.10;23.50;;;;;;;2.92;100.00;101229.19;5021772;28;20470;-70
2022/11/14 06:06:47;;;;;;;42.42;21.52;;;;;;;2.87;100.00;101235.84;5017146;28;20052;-70
2022/11/14 06:09:12;;;;;;;42.03;21.60;;;;;;;2.91;100.00;101235.19;5023052;28;20022;-69
2022/11/14 06:11:37;;;;;;;52.03;22.77;;;;;;;2.92;100.00;101236.13;5023163;28;20025;-70
2022/11/14 06:14:03;;;;;;;49.90;22.67;;;;;;;2.93;100.00;101238.78;5027184;28;20017;-69
2022/11/14 06:16:29;;;;;;;47.38;24.17;;;;;;;2.94;100.00;101240.56;5026544;28;20051;-69
2022/11/14 06:18:55;;;;;;;50.13;23.00;;;;;;;2.93;100.00;101249.19;5017078;28;20040;-69
2022/11/14 06:21:22;;;;;;;53.25;23.75;;;;;;;2.95;100.00;101247.56;5015884;28;20105;-70
2022/11/14 06:23:49;;;;;;;43.17;21.85;;;;;;;2.93;100.00;101254.41;5012972;28;20034;-69
2022/11/14 06:26:17;;;;;;;41.20;21.30;;;;;;;2.90;100.00;101243.81;5015184;28;20025;-68
2022/11/14 06:28:42;;;;;;;48.47;23.20;;;;;;;2.93;100.00;101249.19;5013488;28;20029;-68
2022/11/14 06:31:07;;;;;;;54.50;22.45;;;;;;;2.90;100.00;101249.00;5021161;28;20017;-69
2022/11/14 06:33:35;;;;;;;47.47;22.83;;;;;;;2.89;100.00;101247.25;5011789;28;20062;-69
2022/11/14 06:36:03;;;;;;;46.60;20.77;;;;;;;2.86;100.00;101247.06;5014066;28;20032;-69
2022/11/14 06:38:33;;;;;;;43.25;21.23;;;;;;;2.85;100.00;101243.56;5023460;28;20113;-70
2022/11/14 06:41:02;;;;;;;53.03;23.25;;;;;;;2.84;100.00;101236.56;5018399;28;20025;-70
2022/11/14 06:43:27;;;;;;;47.88;22.77;;;;;;;2.80;100.00;101241.53;5015801;28;20026;-70
2022/11/14 06:45:54;;;;;;;50.17;22.05;;;;;;;2.80;100.00;101238.94;5024474;28;20369;-68
2022/11/14 06:48:19;;;;;;;48.08;22.25;;;;;;;2.79;100.00;101238.03;5016669;28;20403;-70
2022/11/14 06:50:50;;;;;;;47.85;21.98;;;;;;;2.78;100.00;101238.88;5017396;28;20069;-67
2022/11/14 06:53:16;;;;;;;47.60;22.27;;;;;;;2.80;100.00;101244.13;5017303;28;20381;-70
2022/11/14 06:55:41;;;;;;;43.92;21.88;;;;;;;2.79;100.00;101250.13;5026347;28;20029;-69
2022/11/14 06:58:07;;;;;;;48.20;21.40;;;;;;;2.83;100.00;101246.91;5021322;28;20057;-70
2022/11/14 07:00:32;;;;;;;44.53;20.70;;;;;;;2.76;100.00;101250.88;5018554;28;20029;-69
2022/11/14 07:02:58;;;;;;;40.42;20.35;;;;;;;2.77;100.00;101250.06;5015611;28;20049;-70
2022/11/14 07:05:23;;;;;;;38.33;20.77;;;;;;;2.76;100.00;101252.56;5023688;28;20126;-70
2022/11/14 07:07:48;;;;;;;41.08;21.20;;;;;;;2.80;100.00;101258.00;5017712;28;20033;-70
2022/11/14 07:10:14;;;;;;;47.72;20.95;;;;;;;2.79;100.00;101255.34;5012300;28;20030;-72
2022/11/14 07:12:39;;;;;;;40.92;20.38;;;;;;;2.88;100.00;101248.03;5012376;28;20040;-70
2022/11/14 07:15:05;;;;;;;39.75;20.35;;;;;;;2.85;100.00;101250.50;5019382;28;20104;-73
2022/11/14 07:17:33;;;;;;;43.53;20.70;;;;;;;2.77;100.00;101247.47;5041589;28;20113;-70
2022/11/14 07:19:59;;;;;;;42.78;21.98;;;;;;;2.78;100.00;101244.06;5038098;28;20071;-71
2022/11/14 07:22:24;;;;;;;45.30;21.63;;;;;;;2.67;100.00;101248.66;5034101;28;20025;-71
2022/11/14 07:24:49;;;;;;;37.83;20.67;;;;;;;2.69;100.00;101240.94;5037624;28;20034;-71
2022/11/14 07:27:15;;;;;;;48.88;21.17;;;;;;;2.68;100.00;101237.44;5027111;28;20456;-70
2022/11/14 07:29:40;;;;;;;44.85;20.98;;;;;;;2.65;100.00;101236.41;5022898;28;20056;-69
2022/11/14 07:32:07;;;;;;;44.33;20.58;;;;;;;2.75;100.00;101224.78;5015788;28;20022;-70
2022/11/14 07:34:33;;;;;;;41.20;20.42;;;;;;;2.78;100.00;101232.75;5015734;28;20036;-70
2022/11/14 07:36:58;;;;;;;41.53;22.48;;;;;;;2.79;100.00;101226.75;5026413;28;20033;-72
2022/11/14 07:39:24;;;;;;;45.78;21.60;;;;;;;2.80;100.00;101225.94;5023001;28;20120;-71
2022/11/14 07:41:49;;;;;;;40.63;20.65;;;;;;;2.77;100.00;101229.28;5018863;28;20035;-74
2022/11/14 07:44:17;;;;;;;44.40;20.60;;;;;;;2.82;100.00;101234.69;5028815;28;20033;-69
2022/11/14 07:46:42;;;;;;;46.35;21.13;;;;;;;2.86;100.00;101226.25;5032915;28;20422;-69
2022/11/14 07:49:08;;;;;;;43.33;21.27;;;;;;;2.88;100.00;101229.84;5026755;28;20026;-69
2022/11/14 07:51:33;;;;;;;46.85;23.10;;;;;;;2.98;100.00;101226.91;5017126;28;20022;-69
2022/11/14 07:53:58;;;;;;;43.63;20.70;;;;;;;2.96;100.00;101220.75;5021467;28;20029;-70
2022/11/14 07:56:25;;;;;;;46.80;22.20;;;;;;;3.07;100.00;101217.84;5028608;28;20516;-69
2022/11/14 07:58:53;;;;;;;45.70;22.50;;;;;;;3.08;100.00;101220.53;5027339;28;20052;-69
2022/11/14 08:01:18;;;;;;;49.25;21.02;;;;;;;3.12;100.00;101226.75;5040738;28;20029;-69
2022/11/14 08:03:44;;;;;;;47.28;21.73;;;;;;;3.13;100.00;101216.44;5043917;28;20029;-69
2022/11/14 08:06:12;;;;;;;50.40;23.17;;;;;;;3.20;100.00;101210.75;5050261;28;20040;-69
2022/11/14 08:08:37;;;;;;;48.00;21.35;;;;;;;3.20;100.00;101213.38;5023184;28;20049;-67
2022/11/14 08:11:05;;;;;;;51.80;22.67;;;;;;;3.26;100.00;101212.78;5016609;28;20026;-68
2022/11/14 08:13:31;;;;;;;41.67;20.50;;;;;;;3.23;100.00;101204.84;5019484;28;20054;-68
2022/11/14 08:15:56;;;;;;;41.00;20.30;;;;;;;3.22;100.00;101204.75;5030600;28;20093;-68
2022/11/14 08:18:22;;;;;;;43.00;21.77;;;;;;;3.24;100.00;101204.00;5023459;28;20112;-68
2022/11/14 08:20:47;;;;;;;41.78;19.55;;;;;;;3.25;100.00;101211.00;5014947;28;20096;-70
2022/11/14 08:23:13;;;;;;;41.78;21.33;;;;;;;3.26;100.00;101206.69;5027279;28;20047;-68
2022/11/14 08:25:39;;;;;;;43.15;21.25;;;;;;;3.30;100.00;101201.72;5025912;28;20021;-71
2022/11/14 08:28:04;;;;;;;41.90;20.58;;;;;;;3.36;100.00;101199.47;5018121;28;20102;-68
2022/11/14 08:30:29;;;;;;;40.22;20.23;;;;;;;3.39;100.00;101203.88;5015514;28;20120;-68
2022/11/14 08:32:55;;;;;;;43.10;20.98;;;;;;;3.46;100.00;101202.50;5015009;28;20384;-69
2022/11/14 08:35:20;;;;;;;37.78;20.55;;;;;;;3.49;100.00;101200.06;5029466;28;20109;-69
2022/11/14 08:37:46;;;;;;;40.42;20.45;;;;;;;3.57;100.00;101209.16;5021450;28;20033;-70
2022/11/14 08:40:11;;;;;;;42.47;19.83;;;;;;;3.65;100.00;101192.22;5029882;28;20477;-68
2022/11/14 08:42:37;;;;;;;50.78;21.35;;;;;;;3.72;100.00;101193.44;5029544;28;20092;-69
2022/11/14 08:45:03;;;;;;;37.83;19.10;;;;;;;3.77;100.00;101191.03;5035220;28;20021;-68
2022/11/14 08:47:29;;;;;;;38.80;19.75;;;;;;;3.84;100.00;101182.75;5019954;28;20410;-68
2022/11/14 08:49:56;;;;;;;41.63;20.40;;;;;;;3.91;100.00;101179.63;5018549;28;20101;-69
2022/11/14 08:52:22;;;;;;;38.53;19.77;;;;;;;4.02;100.00;101180.13;5020114;28;20108;-69
2022/11/14 08:54:50;;;;;;;36.40;19.63;;;;;;;4.12;100.00;101178.88;5025337;28;20415;-70
2022/11/14 08:57:15;;;;;;;34.08;17.25;;;;;;;4.22;100.00;101174.16;5037275;28;20076;-68
2022/11/14 08:59:41;;;;;;;34.95;19.15;;;;;;;4.35;100.00;101175.66;5037521;28;20022;-68
2022/11/14 09:02:11;;;;;;;32.33;17.40;;;;;;;4.51;100.00;101174.63;5023293;28;20415;-68
2022/11/14 09:04:36;;;;;;;36.40;18.13;;;;;;;4.72;100.00;101182.56;5032311;28;20030;-70
2022/11/14 09:07:04;;;;;;;40.13;17.63;;;;;;;4.95;100.00;101177.50;5024122;28;20048;-68
2022/11/14 09:09:30;;;;;;;31.52;16.77;;;;;;;5.23;100.00;101182.19;5026730;28;20135;-68
2022/11/14 09:11:55;;;;;;;28.80;15.55;;;;;;;5.53;100.00;101179.13;5033327;28;20469;-70
2022/11/14 09:14:20;;;;;;;30.50;14.60;;;;;;;5.81;100.00;101180.28;5030642;28;20024;-69
2022/11/14 09:16:46;;;;;;;26.02;14.57;;;;;;;6.19;100.00;101178.38;5028810;28;20025;-69
2022/11/14 09:19:12;;;;;;;21.80;14.35;;;;;;;6.57;100.00;101178.97;5014224;28;20034;-68
2022/11/14 09:21:37;;;;;;;20.85;13.40;;;;;;;6.84;100.00;101174.75;5017223;28;20042;-69
2022/11/14 09:24:03;;;;;;;26.13;12.70;;;;;;;7.03;100.00;101177.19;5014295;28;20037;-69
2022/11/14 09:26:28;;;;;;;24.00;12.70;;;;;;;7.14;100.00;101163.63;5017346;28;20044;-70
2022/11/14 09:28:54;;;;;;;23.40;12.55;;;;;;;7.20;100.00;101164.72;5020806;28;20029;-69
2022/11/14 09:31:22;;;;;;;20.13;12.68;;;;;;;7.36;100.00;101165.25;5025063;28;20061;-68
2022/11/14 09:33:47;;;;;;;19.58;11.85;;;;;;;7.55;100.00;101166.78;5013749;28;20049;-69
2022/11/14 09:36:14;;;;;;;19.60;11.82;;;;;;;7.69;100.00;101148.91;5013439;28;20061;-67
2022/11/14 09:38:42;;;;;;;22.75;12.55;;;;;;;7.72;100.00;101149.91;5014387;28;20096;-68
2022/11/14 09:41:16;;;;;;;19.60;12.20;;;;;;;7.63;100.00;101157.44;5024951;28;20021;-69
2022/11/14 09:43:58;;;;;;;22.13;12.65;;;;;;;7.76;100.00;101154.41;5017029;28;20176;-69
2022/11/14 09:46:32;;;;;;;19.85;12.35;;;;;;;7.94;100.00;101161.09;5016844;28;20107;-69
2022/11/14 09:48:58;;;;;;;19.48;11.52;;;;;;;8.01;100.00;101156.94;5013377;28;20029;-69
2022/11/14 09:51:31;;;;;;;19.25;11.65;;;;;;;8.09;100.00;101158.94;5013275;28;20437;-69
2022/11/14 09:54:21;;;;;;;23.88;12.65;;;;;;;8.28;100.00;101147.28;5029302;28;20029;-68
2022/11/14 09:56:47;;;;;;;18.65;12.10;;;;;;;8.48;100.00;101143.53;5016204;28;20050;-68
2022/11/14 09:59:13;;;;;;;16.90;11.35;;;;;;;8.72;100.00;101139.03;5025801;28;20748;-69
2022/11/14 10:02:29;;;;;;;15.88;11.27;;;;;;;8.87;100.00;101137.66;5026111;28;20053;-68
2022/11/14 10:05:12;;;;;;;21.77;11.27;;;;;;;9.04;100.00;101139.03;5008261;28;20465;-69
2022/11/14 10:08:05;;;;;;;20.08;12.63;;;;;;;9.31;100.00;101124.88;5022373;28;20033;-68
2022/11/14 10:10:45;;;;;;;18.08;12.27;;;;;;;9.67;100.00;101133.66;5020054;28;20100;-69
2022/11/14 10:13:20;;;;;;;18.67;12.13;;;;;;;9.95;100.00;101132.59;5012617;28;20026;-68
2022/11/14 10:15:59;;;;;;;18.13;11.50;;;;;;;9.90;100.00;101129.84;5012722;28;20056;-69
2022/11/14 10:18:46;;;;;;;18.42;11.38;;;;;;;10.06;100.00;101127.56;5020298;28;20452;-68
2022/11/14 10:21:17;;;;;;;16.13;11.60;;;;;;;10.29;98.88;101120.22;5031108;28;20104;-68
2022/11/14 10:23:59;;;;;;;18.10;12.13;;;;;;;10.54;98.44;101120.75;5032652;28;20053;-69
2022/11/14 10:26:37;;;;;;;16.60;10.75;;;;;;;10.91;96.29;101122.41;5025356;28;20113;-68
2022/11/14 10:29:40;;;;;;;18.45;11.00;;;;;;;10.72;99.20;101121.16;5011359;28;20413;-68
2022/11/14 10:32:32;;;;;;;14.38;11.00;;;;;;;11.03;100.00;101113.88;5013855;28;20034;-68
2022/11/14 10:35:14;;;;;;;19.50;11.13;;;;;;;10.95;96.25;101123.38;5012883;28;20045;-67
2022/11/14 10:37:55;;;;;;;15.93;10.27;;;;;;;11.48;93.60;101125.22;5021927;28;20029;-68
2022/11/14 10:40:28;;;;;;;26.50;11.13;;;;;;;11.87;87.24;101124.09;5015065;28;20042;-68
2022/11/14 10:43:03;;;;;;;15.60;10.57;;;;;;;12.25;84.35;101136.09;5024635;28;20065;-68
2022/11/14 10:45:41;;;;;;;16.65;10.32;;;;;;;12.49;78.49;101125.00;5012603;28;20390;-68
2022/11/14 10:48:13;;;;;;;13.63;10.32;;;;;;;12.19;81.88;101122.84;5025119;28;20022;-69
2022/11/14 10:50:50;;;;;;;17.15;10.23;;;;;;;12.43;79.08;101115.25;5032397;28;20385;-67
2022/11/14 10:53:54;;;;;;;16.23;10.05;;;;;;;12.63;82.22;101123.44;5030700;28;20034;-67
2022/11/14 10:56:20;;;;;;;17.15;10.77;;;;;;;12.59;82.38;101120.75;5036262;28;20432;-69
2022/11/14 10:58:45;;;;;;;13.77;10.15;;;;;;;12.65;80.15;101112.91;5036168;28;20037;-70
2022/11/14 11:01:37;;;;;;;14.15;10.50;;;;;;;12.71;78.97;101104.16;5034067;28;20462;-68
2022/11/14 11:04:33;;;;;;;17.40;10.52;;;;;;;12.61;80.62;101097.88;5028698;28;20087;-68
2022/11/14 11:07:07;;;;;;;13.48;9.68;;;;;;;12.32;80.64;101093.13;5009020;28;20397;-68
2022/11/14 11:12:49;;;;;;;18.77;10.57;;;;;;;12.81;75.88;101085.78;5024337;28;20072;-68
2022/11/14 11:15:19;;;;;;;18.95;9.30;;;;;;;13.29;69.48;101088.03;5016786;28;20026;-67